createdAt,value
2022-07-27T00:01:50.838Z,60.22
2022-07-27T00:04:19.915Z,59.35
2022-07-27T00:06:48.206Z,58.76
2022-07-27T00:09:15.828Z,59.58
2022-07-27T00:11:43.521Z,59.55
2022-07-27T00:14:10.904Z,59.01
2022-07-27T00:16:38.422Z,59.13
2022-07-27T00:19:08.982Z,58.34
2022-07-27T00:21:37.675Z,58.16
2022-07-27T00:24:12.495Z,58.23
2022-07-27T00:26:39.715Z,58.06
2022-07-27T00:29:07.013Z,57.49
2022-07-27T00:31:34.614Z,58.17
2022-07-27T00:34:01.890Z,58.00
2022-07-27T00:36:29.085Z,57.38
2022-07-27T00:38:56.533Z,57.74
2022-07-27T00:41:23.743Z,57.15
2022-07-27T00:43:51.850Z,56.44
2022-07-27T00:46:19.447Z,57.50
2022-07-27T00:48:46.784Z,56.58
2022-07-27T00:51:14.589Z,57.42
2022-07-27T00:53:42.322Z,57.16
2022-07-27T00:56:09.497Z,57.45
2022-07-27T00:58:37.132Z,56.89
2022-07-27T01:01:04.821Z,56.84
2022-07-27T01:03:32.015Z,56.40
2022-07-27T01:05:59.219Z,57.47
2022-07-27T01:08:28.569Z,56.97
2022-07-27T01:10:58.056Z,56.12
2022-07-27T01:13:29.368Z,56.20
2022-07-27T01:15:56.905Z,55.84
2022-07-27T01:18:27.208Z,55.22
2022-07-27T01:20:54.718Z,54.95
2022-07-27T01:23:23.303Z,57.79
2022-07-27T01:25:50.513Z,56.48
2022-07-27T01:28:17.718Z,57.41
2022-07-27T01:30:45.260Z,56.95
2022-07-27T01:33:12.439Z,57.77
2022-07-27T01:35:39.967Z,58.75
2022-07-27T01:38:08.343Z,57.88
2022-07-27T01:40:36.976Z,58.82
2022-07-27T01:43:05.370Z,59.35
2022-07-27T01:45:32.871Z,61.05
2022-07-27T01:48:00.066Z,61.04
2022-07-27T01:50:27.348Z,59.64
2022-07-27T01:52:54.809Z,59.42
2022-07-27T01:55:22.066Z,59.93
2022-07-27T01:57:49.477Z,59.57
2022-07-27T02:00:16.993Z,59.89
2022-07-27T02:02:44.464Z,59.78
2022-07-27T02:05:12.262Z,59.19
2022-07-27T02:07:40.235Z,58.44
2022-07-27T02:10:08.363Z,58.14
2022-07-27T02:12:35.572Z,57.21
2022-07-27T02:15:23.375Z,58.85
2022-07-27T02:17:53.155Z,59.05
2022-07-27T02:20:21.344Z,59.20
2022-07-27T02:22:48.561Z,58.51
2022-07-27T02:25:16.596Z,58.61
2022-07-27T02:27:43.835Z,59.86
2022-07-27T02:30:11.581Z,59.20
2022-07-27T02:32:40.587Z,60.88
2022-07-27T02:35:19.542Z,59.93
2022-07-27T02:37:48.651Z,60.61
2022-07-27T02:40:19.550Z,60.28
2022-07-27T02:42:47.145Z,59.56
2022-07-27T02:45:15.136Z,59.87
2022-07-27T02:47:42.704Z,59.94
2022-07-27T02:50:10.077Z,60.71
2022-07-27T02:52:37.789Z,60.25
2022-07-27T02:55:05.500Z,59.45
2022-07-27T02:57:36.050Z,58.59
2022-07-27T03:00:05.515Z,58.56
2022-07-27T03:02:32.719Z,58.01
2022-07-27T03:04:59.910Z,57.95
2022-07-27T03:07:27.410Z,56.45
2022-07-27T03:09:54.592Z,56.65
2022-07-27T03:12:21.798Z,56.12
2022-07-27T03:14:49.272Z,57.33
2022-07-27T03:17:16.594Z,57.90
2022-07-27T03:19:43.765Z,57.13
2022-07-27T03:22:11.293Z,57.46
2022-07-27T03:24:38.565Z,56.04
2022-07-27T03:27:05.763Z,56.57
2022-07-27T03:29:35.547Z,56.28
2022-07-27T03:32:02.755Z,57.67
2022-07-27T03:34:29.950Z,57.77
2022-07-27T03:36:57.426Z,57.72
2022-07-27T03:39:24.659Z,57.62
2022-07-27T03:41:51.931Z,56.65
2022-07-27T03:44:19.401Z,56.93
2022-07-27T03:46:49.013Z,56.60
2022-07-27T03:49:16.429Z,57.03
2022-07-27T03:51:44.229Z,57.98
2022-07-27T03:54:11.464Z,56.39
2022-07-27T03:56:38.731Z,57.92
2022-07-27T03:59:06.231Z,57.77
2022-07-27T04:01:33.479Z,56.70
2022-07-27T04:04:01.056Z,56.66
2022-07-27T04:06:28.594Z,56.72
2022-07-27T04:08:59.630Z,55.89
2022-07-27T04:11:37.815Z,55.98
2022-07-27T04:14:12.800Z,55.96
2022-07-27T04:16:40.601Z,56.15
2022-07-27T04:19:08.291Z,55.42
2022-07-27T04:21:35.645Z,57.32
2022-07-27T04:24:03.138Z,56.27
2022-07-27T04:26:30.395Z,55.18
2022-07-27T04:28:57.595Z,53.82
2022-07-27T04:31:25.157Z,55.39
2022-07-27T04:33:52.409Z,53.75
2022-07-27T04:36:19.613Z,52.92
2022-07-27T04:38:47.089Z,53.63
2022-07-27T04:41:14.271Z,54.28
2022-07-27T04:43:41.467Z,54.16
2022-07-27T04:46:14.751Z,52.90
2022-07-27T04:48:49.076Z,53.51
2022-07-27T04:51:17.482Z,52.56
2022-07-27T04:53:53.588Z,52.20
2022-07-27T04:56:26.675Z,51.91
2022-07-27T04:58:54.386Z,52.19
2022-07-27T05:01:23.117Z,52.63
2022-07-27T05:03:50.823Z,50.95
2022-07-27T05:06:18.249Z,51.63
2022-07-27T05:08:45.442Z,51.61
2022-07-27T05:11:12.917Z,51.21
2022-07-27T05:13:40.661Z,51.53
2022-07-27T05:16:09.366Z,50.99
2022-07-27T05:18:37.722Z,50.43
2022-07-27T05:21:05.243Z,50.70
2022-07-27T05:23:32.571Z,51.53
2022-07-27T05:26:00.074Z,52.06
2022-07-27T05:28:28.161Z,52.62
2022-07-27T05:30:55.382Z,51.86
2022-07-27T05:33:22.866Z,52.88
2022-07-27T05:35:50.059Z,51.33
2022-07-27T05:38:17.218Z,51.28
2022-07-27T05:40:45.507Z,50.41
2022-07-27T05:43:12.743Z,50.11
2022-07-27T05:45:40.130Z,48.67
2022-07-27T05:48:07.653Z,47.75
2022-07-27T05:50:34.842Z,47.63
2022-07-27T05:53:02.074Z,48.13
2022-07-27T05:55:29.550Z,48.03
2022-07-27T05:57:56.752Z,46.95
2022-07-27T06:00:23.993Z,47.11
2022-07-27T06:02:51.842Z,46.57
2022-07-27T06:05:19.045Z,46.26
2022-07-27T06:08:03.704Z,45.44
2022-07-27T06:10:32.437Z,45.73
2022-07-27T06:13:00.168Z,45.78
2022-07-27T06:15:27.374Z,45.38
2022-07-27T06:17:54.836Z,44.49
2022-07-27T06:20:23.124Z,45.31
2022-07-27T06:22:54.588Z,44.17
2022-07-27T06:25:22.878Z,43.16
2022-07-27T06:28:01.351Z,42.38
2022-07-27T06:30:29.033Z,42.29
2022-07-27T06:32:57.510Z,42.37
2022-07-27T06:35:26.485Z,41.71
2022-07-27T06:37:54.906Z,41.36
2022-07-27T06:40:22.268Z,41.96
2022-07-27T06:42:49.459Z,41.75
2022-07-27T06:45:17.456Z,41.56
2022-07-27T06:47:48.990Z,41.03
2022-07-27T06:50:18.480Z,40.44
2022-07-27T06:52:46.009Z,40.51
2022-07-27T06:55:13.838Z,40.91
2022-07-27T06:57:43.009Z,40.72
2022-07-27T07:00:10.896Z,40.30
2022-07-27T07:02:38.625Z,39.32
2022-07-27T07:05:06.308Z,39.15
2022-07-27T07:07:33.526Z,36.74
2022-07-27T07:10:01.029Z,37.11
2022-07-27T07:12:28.757Z,36.28
2022-07-27T07:14:56.003Z,35.54
2022-07-27T07:17:23.219Z,35.84
2022-07-27T07:19:50.703Z,35.40
2022-07-27T07:22:17.898Z,35.17
2022-07-27T07:24:45.083Z,34.69
2022-07-27T07:27:12.552Z,34.21
2022-07-27T07:29:39.736Z,34.11
2022-07-27T07:32:07.050Z,34.50
2022-07-27T07:34:34.542Z,34.27
2022-07-27T07:37:01.817Z,34.41
2022-07-27T07:39:31.319Z,34.05
2022-07-27T07:41:59.200Z,34.28
2022-07-27T07:44:26.414Z,32.93
2022-07-27T07:46:53.672Z,33.22
2022-07-27T07:49:39.428Z,33.30
2022-07-27T07:52:08.011Z,32.50
2022-07-27T07:54:35.573Z,31.67
2022-07-27T07:57:02.857Z,34.03
2022-07-27T07:59:30.034Z,34.28
2022-07-27T08:01:57.927Z,31.04
2022-07-27T08:04:25.748Z,31.16
2022-07-27T08:06:53.065Z,30.94
2022-07-27T08:09:21.769Z,31.81
2022-07-27T08:11:49.307Z,30.53
2022-07-27T08:14:16.610Z,32.72
2022-07-27T08:16:43.881Z,32.09
2022-07-27T08:19:16.053Z,31.75
2022-07-27T08:21:43.410Z,30.87
2022-07-27T08:24:11.032Z,32.08
2022-07-27T08:26:38.548Z,32.75
2022-07-27T08:29:11.316Z,31.91
2022-07-27T08:31:51.678Z,30.05
2022-07-27T08:34:19.729Z,31.41
2022-07-27T08:36:47.188Z,31.70
2022-07-27T08:39:32.027Z,31.46
2022-07-27T08:42:04.335Z,27.24
2022-07-27T08:44:31.612Z,28.54
2022-07-27T08:47:00.046Z,29.80
2022-07-27T08:49:41.687Z,29.79
2022-07-27T08:52:11.083Z,29.99
2022-07-27T08:54:39.182Z,30.25
2022-07-27T08:57:07.575Z,30.45
2022-07-27T08:59:34.898Z,29.35
2022-07-27T09:02:03.780Z,27.53
2022-07-27T09:04:31.178Z,28.87
2022-07-27T09:06:58.363Z,29.63
2022-07-27T09:09:25.875Z,28.48
2022-07-27T09:12:04.220Z,28.85
2022-07-27T09:14:32.264Z,29.73
2022-07-27T09:19:59.888Z,28.54
2022-07-27T09:23:03.134Z,28.68
2022-07-27T09:26:01.743Z,28.40
2022-07-27T09:28:29.325Z,27.61
2022-07-27T09:31:05.472Z,28.21
2022-07-27T09:33:34.603Z,28.09
2022-07-27T09:36:02.205Z,28.31
2022-07-27T09:38:29.424Z,27.58
2022-07-27T09:41:03.897Z,27.07
2022-07-27T09:46:32.415Z,26.80
2022-07-27T09:49:00.346Z,26.89
2022-07-27T09:54:15.862Z,26.82
2022-07-27T09:56:43.322Z,26.53
2022-07-27T09:59:11.563Z,26.72
2022-07-27T10:01:47.821Z,27.02
2022-07-27T10:04:18.348Z,26.36
2022-07-27T10:07:01.604Z,26.52
2022-07-27T10:09:30.624Z,27.07
2022-07-27T10:11:58.452Z,26.32
2022-07-27T10:14:25.829Z,26.55
2022-07-27T10:16:53.443Z,25.66
2022-07-27T10:19:20.753Z,25.33
2022-07-27T10:21:48.346Z,26.10
2022-07-27T10:24:27.011Z,26.01
2022-07-27T10:26:54.432Z,26.18
2022-07-27T10:29:22.495Z,25.42
2022-07-27T10:31:53.399Z,25.10
2022-07-27T10:34:37.219Z,25.47
2022-07-27T10:37:12.204Z,25.54
2022-07-27T10:40:24.623Z,24.89
2022-07-27T10:42:54.604Z,25.13
2022-07-27T10:45:22.384Z,24.66
2022-07-27T10:47:52.849Z,25.31
2022-07-27T10:50:21.622Z,25.08
2022-07-27T10:52:56.037Z,25.32
2022-07-27T10:55:30.093Z,24.92
2022-07-27T10:57:58.068Z,23.79
2022-07-27T11:00:46.159Z,24.54
2022-07-27T11:03:22.474Z,24.52
2022-07-27T11:06:14.647Z,24.37
2022-07-27T11:09:01.720Z,23.88
2022-07-27T11:11:35.721Z,23.59
2022-07-27T11:14:02.956Z,24.19
2022-07-27T11:16:30.679Z,23.81
2022-07-27T11:19:05.341Z,24.21
2022-07-27T11:21:36.586Z,23.22
2022-07-27T11:24:11.062Z,22.96
2022-07-27T11:26:39.994Z,22.94
2022-07-27T11:29:08.696Z,22.35
2022-07-27T11:31:54.641Z,22.62
2022-07-27T11:34:27.798Z,21.92
2022-07-27T11:36:55.524Z,22.70
2022-07-27T11:42:17.662Z,20.61
2022-07-27T11:44:46.302Z,21.58
2022-07-27T11:47:17.545Z,21.32
2022-07-27T11:49:44.817Z,21.11
2022-07-27T11:52:12.389Z,21.43
2022-07-27T11:54:40.266Z,21.31
2022-07-27T11:57:08.746Z,22.03
2022-07-27T11:59:36.191Z,21.74
2022-07-27T12:02:07.666Z,21.61
2022-07-27T12:04:38.963Z,22.10
2022-07-27T12:07:08.098Z,22.14
2022-07-27T12:09:38.706Z,22.75
2022-07-27T12:12:16.244Z,22.70
2022-07-27T12:14:54.482Z,22.29
2022-07-27T12:17:26.103Z,23.05
2022-07-27T12:19:54.873Z,22.40
2022-07-27T12:22:27.309Z,21.79
2022-07-27T12:24:55.012Z,22.63
2022-07-27T12:27:22.239Z,20.65
2022-07-27T12:30:00.306Z,20.87
2022-07-27T12:32:28.483Z,20.94
2022-07-27T12:34:55.966Z,20.60
2022-07-27T12:37:23.637Z,19.83
2022-07-27T12:39:53.907Z,19.79
2022-07-27T12:42:21.133Z,20.31
2022-07-27T12:44:48.596Z,18.39
2022-07-27T12:47:34.875Z,18.12
2022-07-27T12:50:03.151Z,17.13
2022-07-27T12:52:31.242Z,17.95
2022-07-27T12:54:58.726Z,18.74
2022-07-27T12:57:54.031Z,17.84
2022-07-27T13:00:15.279Z,18.54
2022-07-27T13:02:42.675Z,19.42
2022-07-27T13:14:52.934Z,18.13
2022-07-27T13:17:20.838Z,17.99
2022-07-27T13:19:48.203Z,18.61
2022-07-27T13:22:15.397Z,18.12
2022-07-27T13:24:42.944Z,18.00
2022-07-27T13:27:10.153Z,18.25
2022-07-27T13:29:37.525Z,18.24
2022-07-27T13:32:27.385Z,18.30
2022-07-27T13:40:48.125Z,19.09
2022-07-27T13:43:16.981Z,17.84
2022-07-27T13:45:44.210Z,18.18
2022-07-27T13:48:12.351Z,18.06
2022-07-27T13:50:39.775Z,17.29
2022-07-27T13:53:07.039Z,18.11
2022-07-27T13:55:35.415Z,18.32
2022-07-27T13:58:02.689Z,17.04
2022-07-27T14:00:29.891Z,18.19
2022-07-27T14:02:57.623Z,18.21
2022-07-27T14:05:24.854Z,17.04
2022-07-27T14:07:54.700Z,17.73
2022-07-27T14:10:41.725Z,18.07
2022-07-27T14:13:10.894Z,17.91
2022-07-27T14:15:50.365Z,17.59
2022-07-27T14:18:25.970Z,18.38
2022-07-27T14:20:54.264Z,18.07
2022-07-27T14:23:21.784Z,17.23
2022-07-27T14:25:50.111Z,17.58
2022-07-27T14:28:17.604Z,17.37
2022-07-27T14:30:45.072Z,18.13
2022-07-27T14:33:12.254Z,18.05
2022-07-27T14:35:40.943Z,19.53
2022-07-27T14:38:08.857Z,18.89
2022-07-27T14:40:36.133Z,19.88
2022-07-27T14:43:03.823Z,18.38
2022-07-27T14:45:44.792Z,18.35
2022-07-27T14:48:21.026Z,18.24
2022-07-27T14:50:52.487Z,18.51
2022-07-27T14:53:20.024Z,18.10
2022-07-27T14:55:47.219Z,17.25
2022-07-27T14:58:14.448Z,17.22
2022-07-27T15:00:41.956Z,17.81
2022-07-27T15:03:09.397Z,18.39
2022-07-27T15:05:49.351Z,17.83
2022-07-27T15:08:19.260Z,18.35
2022-07-27T15:10:47.204Z,17.61
2022-07-27T15:13:14.865Z,18.37
2022-07-27T15:15:42.163Z,18.38
2022-07-27T15:18:09.729Z,18.27
2022-07-27T15:20:36.958Z,18.65
2022-07-27T15:23:04.407Z,17.93
2022-07-27T15:25:33.272Z,17.85
2022-07-27T15:28:00.595Z,18.21
2022-07-27T15:30:27.786Z,17.97
2022-07-27T15:32:55.254Z,18.47
2022-07-27T15:35:22.531Z,18.78
2022-07-27T15:37:54.101Z,18.05
2022-07-27T15:40:37.600Z,19.05
2022-07-27T15:43:05.248Z,18.45
2022-07-27T15:45:32.775Z,18.94
2022-07-27T15:47:59.999Z,19.39
2022-07-27T15:50:27.204Z,19.68
2022-07-27T15:52:54.690Z,19.25
2022-07-27T15:55:21.966Z,20.45
2022-07-27T15:57:49.552Z,19.40
2022-07-27T16:00:17.066Z,19.00
2022-07-27T16:02:45.443Z,19.59
2022-07-27T16:05:12.641Z,19.40
2022-07-27T16:07:40.803Z,19.35
2022-07-27T16:10:09.889Z,19.68
2022-07-27T16:12:38.532Z,21.40
2022-07-27T16:15:06.230Z,19.80
2022-07-27T16:17:33.729Z,20.23
2022-07-27T16:20:01.037Z,20.62
2022-07-27T16:22:29.495Z,20.48
2022-07-27T16:24:57.059Z,20.97
2022-07-27T16:27:24.398Z,20.90
2022-07-27T16:29:51.906Z,20.97
2022-07-27T16:32:19.509Z,21.12
2022-07-27T16:34:47.054Z,20.91
2022-07-27T16:37:14.249Z,20.42
2022-07-27T16:39:41.748Z,21.17
2022-07-27T16:42:09.012Z,20.56
2022-07-27T16:44:38.759Z,21.76
2022-07-27T16:47:07.427Z,21.00
2022-07-27T16:49:54.227Z,20.55
2022-07-27T16:52:22.283Z,21.37
2022-07-27T16:54:49.645Z,21.73
2022-07-27T16:57:17.032Z,21.16
2022-07-27T16:59:44.846Z,22.16
2022-07-27T17:02:12.280Z,22.26
2022-07-27T17:04:39.770Z,21.96
2022-07-27T17:07:12.530Z,22.37
2022-07-27T17:09:40.682Z,22.53
2022-07-27T17:12:09.165Z,22.47
2022-07-27T17:14:36.649Z,22.74
2022-07-27T17:17:04.027Z,22.72
2022-07-27T17:19:31.597Z,24.16
2022-07-27T17:21:59.242Z,25.29
2022-07-27T17:24:26.726Z,26.83
2022-07-27T17:26:54.503Z,26.42
2022-07-27T17:29:21.974Z,26.92
2022-07-27T17:31:49.389Z,26.39
2022-07-27T17:34:17.180Z,26.04
2022-07-27T17:36:44.597Z,26.46
2022-07-27T17:39:12.210Z,26.41
2022-07-27T17:41:40.196Z,26.45
2022-07-27T17:44:07.545Z,26.38
2022-07-27T17:46:38.823Z,27.19
2022-07-27T17:49:07.142Z,27.83
2022-07-27T17:51:43.895Z,27.78
2022-07-27T17:54:11.528Z,28.15
2022-07-27T17:56:38.823Z,28.41
2022-07-27T17:59:34.518Z,28.11
2022-07-27T18:01:56.644Z,28.46
2022-07-27T18:04:25.498Z,28.67
2022-07-27T18:06:52.907Z,28.36
2022-07-27T18:09:20.194Z,28.75
2022-07-27T18:15:04.354Z,29.34
2022-07-27T18:17:32.543Z,29.57
2022-07-27T18:20:01.131Z,29.96
2022-07-27T18:22:36.672Z,29.60
2022-07-27T18:25:13.466Z,29.37
2022-07-27T18:27:45.403Z,29.70
2022-07-27T18:30:14.109Z,30.25
2022-07-27T18:32:43.057Z,30.78
2022-07-27T18:35:14.156Z,30.13
2022-07-27T18:37:42.694Z,30.15
2022-07-27T18:40:11.259Z,30.55
2022-07-27T18:42:39.832Z,29.88
2022-07-27T18:45:09.020Z,30.47
2022-07-27T18:47:39.569Z,30.39
2022-07-27T18:50:08.120Z,31.14
2022-07-27T18:52:35.907Z,32.59
2022-07-27T18:55:04.074Z,33.04
2022-07-27T18:57:33.883Z,32.97
2022-07-27T19:00:01.705Z,34.09
2022-07-27T19:02:38.746Z,34.22
2022-07-27T19:05:10.343Z,33.97
2022-07-27T19:07:42.512Z,34.68
2022-07-27T19:10:12.132Z,36.06
2022-07-27T19:12:46.094Z,35.84
2022-07-27T19:15:15.975Z,36.31
2022-07-27T19:17:48.036Z,36.25
2022-07-27T19:20:16.595Z,36.70
2022-07-27T19:22:48.333Z,36.59
2022-07-27T19:25:16.325Z,37.30
2022-07-27T19:27:44.217Z,37.74
2022-07-27T19:30:12.679Z,38.06
2022-07-27T19:32:41.074Z,39.53
2022-07-27T19:35:09.570Z,39.60
2022-07-27T19:37:40.065Z,39.78
2022-07-27T19:40:33.311Z,40.60
2022-07-27T19:42:59.111Z,40.35
2022-07-27T19:45:27.306Z,40.82
2022-07-27T19:47:55.066Z,40.62
2022-07-27T19:50:28.139Z,40.87
2022-07-27T19:52:55.957Z,41.56
2022-07-27T19:55:25.865Z,41.62
2022-07-27T19:57:54.301Z,41.14
2022-07-27T20:00:23.214Z,41.83
2022-07-27T20:02:51.248Z,43.31
2022-07-27T20:05:19.052Z,42.38
2022-07-27T20:07:46.940Z,42.50
2022-07-27T20:10:15.833Z,43.43
2022-07-27T20:12:43.560Z,43.24
2022-07-27T20:15:12.503Z,43.53
2022-07-27T20:17:40.946Z,43.90
2022-07-27T20:20:10.373Z,44.45
2022-07-27T20:22:42.083Z,44.54
2022-07-27T20:25:11.388Z,44.83
2022-07-27T20:27:39.990Z,44.10
2022-07-27T20:30:08.751Z,45.07
2022-07-27T20:32:42.042Z,44.25
2022-07-27T20:35:09.656Z,44.84
2022-07-27T20:37:40.235Z,44.00
2022-07-27T20:40:13.594Z,44.11
2022-07-27T20:42:42.167Z,43.29
2022-07-27T20:45:11.661Z,42.53
2022-07-27T20:47:39.581Z,42.22
2022-07-27T20:50:08.479Z,42.00
2022-07-27T20:52:37.179Z,41.53
2022-07-27T20:55:06.188Z,40.46
2022-07-27T20:57:35.258Z,40.61
2022-07-27T21:00:04.934Z,40.71
2022-07-27T21:02:33.747Z,39.55
2022-07-27T21:05:02.736Z,39.44
2022-07-27T21:07:31.142Z,39.07
2022-07-27T21:09:59.365Z,39.58
2022-07-27T21:12:28.682Z,40.20
2022-07-27T21:14:57.107Z,39.85
2022-07-27T21:17:25.030Z,40.28
2022-07-27T21:19:54.177Z,40.42
2022-07-27T21:22:22.122Z,40.81
2022-07-27T21:24:50.116Z,41.68
2022-07-27T21:27:21.068Z,42.52
2022-07-27T21:29:53.344Z,42.96
2022-07-27T21:32:21.324Z,42.93
2022-07-27T21:34:48.792Z,42.65
2022-07-27T21:37:19.220Z,42.44
2022-07-27T21:39:47.274Z,43.26
2022-07-27T21:42:15.309Z,43.47
2022-07-27T21:44:43.389Z,43.05
2022-07-27T21:47:14.219Z,43.18
2022-07-27T21:49:42.603Z,43.37
2022-07-27T21:52:11.598Z,42.88
2022-07-27T21:54:40.031Z,42.35
2022-07-27T21:57:14.017Z,42.38
2022-07-27T21:59:42.228Z,42.63
2022-07-27T22:02:10.484Z,41.98
2022-07-27T22:04:38.679Z,42.18
2022-07-27T22:07:07.107Z,42.17
2022-07-27T22:09:47.066Z,42.41
2022-07-27T22:12:15.212Z,42.41
2022-07-27T22:14:43.649Z,41.35
2022-07-27T22:17:15.019Z,40.65
2022-07-27T22:19:42.909Z,40.71
2022-07-27T22:22:14.351Z,40.20
2022-07-27T22:24:42.641Z,39.73
2022-07-27T22:27:09.937Z,40.44
2022-07-27T22:29:37.404Z,40.67
2022-07-27T22:32:05.218Z,40.52
2022-07-27T22:34:32.776Z,39.81
2022-07-27T22:37:00.532Z,40.37
2022-07-27T22:39:28.201Z,40.86
2022-07-27T22:41:55.876Z,39.90
2022-07-27T22:44:23.437Z,39.88
2022-07-27T22:46:51.130Z,39.80
2022-07-27T22:49:22.740Z,40.13
2022-07-27T22:51:52.919Z,41.43
2022-07-27T22:54:22.250Z,40.90
2022-07-27T22:56:49.747Z,42.94
2022-07-27T22:59:17.001Z,44.39
2022-07-27T23:01:47.537Z,44.08
2022-07-27T23:04:18.717Z,45.41
2022-07-27T23:06:46.703Z,45.32
2022-07-27T23:09:14.538Z,44.10
2022-07-27T23:11:42.167Z,43.34
2022-07-27T23:14:09.994Z,42.79
2022-07-27T23:16:39.854Z,41.60
2022-07-27T23:19:07.217Z,40.90
2022-07-27T23:21:35.038Z,41.25
2022-07-27T23:24:04.960Z,41.20
2022-07-27T23:26:32.634Z,40.69
2022-07-27T23:29:01.154Z,40.76
2022-07-27T23:31:28.787Z,39.92
2022-07-27T23:33:57.505Z,40.82
2022-07-27T23:36:25.138Z,41.03
2022-07-27T23:38:52.555Z,41.68
2022-07-27T23:41:19.918Z,41.42
2022-07-27T23:43:47.461Z,41.62
2022-07-27T23:46:14.834Z,39.11
2022-07-27T23:48:42.278Z,39.51
2022-07-27T23:51:15.264Z,38.32
2022-07-27T23:53:42.517Z,39.31
2022-07-27T23:56:10.051Z,38.98
2022-07-27T23:58:37.324Z,38.62
